Klaipeda, Lithuania
Current Conditions -  °F | °C
As of 1:50 PM on Sunday 23 Nov 2014 (Local Time) from EYPA Reporting Station
Haze Haze  
Wind Chill: 34°   Ceiling: Unl
Heat Index: 37°   Visibility: 2.8mi
Dew Point: 36°   Wind: 5mph
Humidity: 93%   Direction: 130°SE
Pressure: 30.5"   Gusts: NA
Location:  55.71°N, 21.13°E
Report Text: EYPA 231050Z 13004KT 4600 BR NSC 03/02 Q1033 R19/1///95
Loading
Personal Weather Stations






























Interactive Weather Map New forecast layout! Learn more

10-Day Weather Forecast

Advertisements
Track Severe Weather on mobile